Time;durP1;ratioP1;P1;durP2;ratioP2;P2;SDS_P1;SDS_P2;PMS_P1;PMS_P2;Temp;Humidity;BMP_temperature;BMP_pressure;BME280_temperature;BME280_humidity;BME280_pressure;Samples;Min_cycle;Max_cycle;Signal;HPM_P1;HPM_P2
2023/03/09 00:00:18;;;;;;;;;;;;;;;11.34;43.79;93973.84;4228747;28;20067;-55
2023/03/09 00:02:21;;;;;;;;;;;;;;;11.38;43.96;93984.75;4229342;28;19924;-54
2023/03/09 00:04:23;;;;;;;;;;;;;;;11.39;43.91;93989.84;4228906;28;20010;-48
2023/03/09 00:06:24;;;;;;;;;;;;;;;11.35;44.24;93974.66;4214583;28;19958;-53
2023/03/09 00:08:29;;;;;;;;;;;;;;;11.23;45.11;93976.91;4196101;28;20386;-54
2023/03/09 00:10:31;;;;;;;;;;;;;;;11.12;45.78;93985.22;4212550;28;19930;-52
2023/03/09 00:12:32;;;;;;;;;;;;;;;11.01;46.09;93986.47;4229056;28;20277;-53
2023/03/09 00:14:34;;;;;;;;;;;;;;;10.95;46.52;93980.16;4218368;28;19928;-53
2023/03/09 00:16:36;;;;;;;;;;;;;;;10.87;46.86;93977.59;4221668;28;19920;-50
2023/03/09 00:18:38;;;;;;;;;;;;;;;10.80;47.14;93987.19;4195786;28;19920;-53
2023/03/09 00:20:40;;;;;;;;;;;;;;;10.74;47.29;93987.88;4215603;28;20526;-52
2023/03/09 00:22:41;;;;;;;;;;;;;;;10.69;47.47;93990.19;4201034;28;19947;-52
2023/03/09 00:24:46;;;;;;;;;;;;;;;10.64;47.90;93988.13;4212640;28;19924;-53
2023/03/09 00:26:48;;;;;;;;;;;;;;;10.56;48.39;93989.00;4215768;28;19946;-53
2023/03/09 00:28:50;;;;;;;;;;;;;;;10.43;48.65;93983.53;4203505;28;19924;-54
2023/03/09 00:30:51;;;;;;;;;;;;;;;10.39;48.96;93984.88;4211380;28;19971;-50
2023/03/09 00:32:53;;;;;;;;;;;;;;;10.30;49.15;93991.16;4208829;28;19970;-52
2023/03/09 00:34:55;;;;;;;;;;;;;;;10.26;49.31;93977.59;4229353;28;19999;-51
2023/03/09 00:36:56;;;;;;;;;;;;;;;10.15;49.70;93976.19;4218696;28;19974;-56
2023/03/09 00:38:58;;;;;;;;;;;;;;;9.71;50.20;93975.97;4201359;28;19935;-52
2023/03/09 00:41:02;;;;;;;;;;;;;;;9.57;50.59;93987.94;4215572;28;20527;-53
2023/03/09 00:43:04;;;;;;;;;;;;;;;9.49;51.33;93965.28;4206706;28;19966;-51
2023/03/09 00:45:05;;;;;;;;;;;;;;;9.51;51.55;93949.44;4211068;28;19927;-53
2023/03/09 00:47:07;;;;;;;;;;;;;;;9.42;52.07;93962.53;4213276;28;19991;-57
2023/03/09 00:49:10;;;;;;;;;;;;;;;9.39;51.20;93973.31;4205383;28;19920;-52
2023/03/09 00:51:11;;;;;;;;;;;;;;;8.97;52.64;93960.53;4226013;28;19991;-52
2023/03/09 00:53:13;;;;;;;;;;;;;;;8.87;52.77;93965.16;4202201;28;19992;-51
2023/03/09 00:55:15;;;;;;;;;;;;;;;8.94;53.48;93951.25;4208130;28;19943;-52
2023/03/09 00:57:16;;;;;;;;;;;;;;;9.06;52.61;93953.50;4209443;28;19950;-56
2023/03/09 00:59:18;;;;;;;;;;;;;;;9.17;52.69;93950.53;4202123;28;20042;-54
2023/03/09 01:01:19;;;;;;;;;;;;;;;9.23;52.08;93968.16;4214688;28;19970;-48
2023/03/09 01:03:21;;;;;;;;;;;;;;;9.18;51.96;93970.44;4215368;28;20255;-50
2023/03/09 01:05:22;;;;;;;;;;;;;;;9.10;52.31;93949.56;4202170;28;19964;-50
2023/03/09 01:07:24;;;;;;;;;;;;;;;9.02;52.92;93968.69;4213382;28;19920;-53
2023/03/09 01:09:25;;;;;;;;;;;;;;;9.05;52.16;93975.38;4211775;28;19985;-53
2023/03/09 01:11:27;;;;;;;;;;;;;;;9.02;52.62;93948.59;4225486;28;19920;-52
2023/03/09 01:13:28;;;;;;;;;;;;;;;8.98;52.39;93959.56;4231158;28;19919;-50
2023/03/09 01:15:30;;;;;;;;;;;;;;;8.99;52.71;93950.72;4227310;28;19926;-56
2023/03/09 01:17:31;;;;;;;;;;;;;;;8.78;53.09;93959.94;4228112;28;19924;-53
2023/03/09 01:19:33;;;;;;;;;;;;;;;8.69;53.32;93955.72;4207763;28;19920;-51
2023/03/09 01:21:34;;;;;;;;;;;;;;;8.75;53.29;93947.19;4218958;28;19920;-53
2023/03/09 01:23:37;;;;;;;;;;;;;;;8.85;53.27;93935.78;4224341;28;19927;-52
2023/03/09 01:25:38;;;;;;;;;;;;;;;8.92;53.70;93927.09;4227152;28;19920;-49
2023/03/09 01:27:40;;;;;;;;;;;;;;;8.97;53.48;93934.41;4222068;28;19920;-50
2023/03/09 01:29:41;;;;;;;;;;;;;;;8.90;53.57;93936.06;4226049;28;19963;-54
2023/03/09 01:31:42;;;;;;;;;;;;;;;8.89;53.20;93939.69;4227948;28;19999;-55
2023/03/09 01:33:44;;;;;;;;;;;;;;;8.71;53.81;93924.19;4227644;28;20451;-54
2023/03/09 01:35:46;;;;;;;;;;;;;;;8.62;54.06;93939.06;4191449;28;19920;-51
2023/03/09 01:37:48;;;;;;;;;;;;;;;8.64;53.72;93941.50;4197799;28;19928;-53
2023/03/09 01:39:49;;;;;;;;;;;;;;;8.51;54.54;93926.34;4227110;28;19919;-52
2023/03/09 01:41:51;;;;;;;;;;;;;;;8.54;54.29;93926.84;4227127;28;20420;-53
2023/03/09 01:43:52;;;;;;;;;;;;;;;8.55;54.21;93923.25;4221188;28;20373;-55
2023/03/09 01:46:13;;;;;;;;;;;;;;;8.65;54.12;93917.84;4217856;28;19920;-56
2023/03/09 01:48:14;;;;;;;;;;;;;;;8.72;54.08;93910.16;4214639;28;20025;-55
2023/03/09 01:50:25;;;;;;;;;;;;;;;8.81;53.91;93911.78;4215475;28;20353;-55
2023/03/09 01:52:27;;;;;;;;;;;;;;;8.88;53.39;93907.50;4200582;28;19994;-53
2023/03/09 01:54:31;;;;;;;;;;;;;;;8.84;53.78;93903.63;4212735;28;20328;-53
2023/03/09 01:56:33;;;;;;;;;;;;;;;8.74;53.19;93923.88;4211287;28;19920;-51
2023/03/09 01:58:34;;;;;;;;;;;;;;;8.63;53.69;93912.00;4204546;28;20003;-50
2023/03/09 02:00:36;;;;;;;;;;;;;;;8.57;53.45;93910.84;4217986;28;19969;-53
2023/03/09 02:02:39;;;;;;;;;;;;;;;8.65;53.68;93912.63;4204019;28;19965;-52
2023/03/09 02:04:42;;;;;;;;;;;;;;;8.73;53.94;93909.19;4218646;28;19930;-53
2023/03/09 02:06:44;;;;;;;;;;;;;;;8.73;53.49;93920.47;4228882;28;19919;-50
2023/03/09 02:08:51;;;;;;;;;;;;;;;8.47;54.11;93919.84;4205373;28;19990;-52
2023/03/09 02:10:56;;;;;;;;;;;;;;;8.49;53.84;93917.88;4197886;28;20064;-51
2023/03/09 02:13:00;;;;;;;;;;;;;;;8.57;54.04;93913.47;4205988;28;19965;-53
2023/03/09 02:15:02;;;;;;;;;;;;;;;8.63;54.22;93927.66;4201006;28;19955;-52
2023/03/09 02:17:03;;;;;;;;;;;;;;;8.69;53.67;93944.44;4214272;28;20438;-54
2023/03/09 02:19:05;;;;;;;;;;;;;;;8.76;53.78;93935.78;4221054;28;20210;-54
2023/03/09 02:21:27;;;;;;;;;;;;;;;8.82;53.13;93932.50;4224920;28;20431;-51
2023/03/09 02:23:35;;;;;;;;;;;;;;;8.78;52.97;93925.19;4188892;28;20306;-53
2023/03/09 02:25:38;;;;;;;;;;;;;;;8.71;53.96;93911.97;4203434;28;20370;-52
2023/03/09 02:27:39;;;;;;;;;;;;;;;8.69;53.83;93920.94;4195312;28;20003;-52
2023/03/09 02:29:41;;;;;;;;;;;;;;;8.72;53.49;93934.47;4228322;28;19931;-53
2023/03/09 02:31:43;;;;;;;;;;;;;;;8.76;54.32;93933.16;4205802;28;19928;-54
2023/03/09 02:33:44;;;;;;;;;;;;;;;8.84;53.62;93932.34;4209366;28;19920;-54
2023/03/09 02:35:46;;;;;;;;;;;;;;;8.83;53.90;93935.94;4227428;28;19930;-53
2023/03/09 02:37:47;;;;;;;;;;;;;;;8.74;53.92;93947.38;4204770;28;20275;-50
2023/03/09 02:39:49;;;;;;;;;;;;;;;8.68;53.68;93930.56;4223865;28;19936;-53
2023/03/09 02:41:50;;;;;;;;;;;;;;;8.68;53.82;93934.97;4179173;28;19925;-53
2023/03/09 02:43:53;;;;;;;;;;;;;;;8.64;53.93;93931.06;4185878;28;19936;-53
2023/03/09 02:45:55;;;;;;;;;;;;;;;8.61;54.54;93929.63;4182496;28;20010;-53
2023/03/09 02:47:57;;;;;;;;;;;;;;;8.61;54.42;93934.84;4196832;28;20354;-54
2023/03/09 02:49:58;;;;;;;;;;;;;;;8.66;54.32;93922.09;4201853;28;19928;-53
2023/03/09 02:52:01;;;;;;;;;;;;;;;8.68;54.45;93912.28;4212047;28;19930;-48
2023/03/09 02:54:02;;;;;;;;;;;;;;;8.45;54.45;93938.25;4216687;28;19924;-52
2023/03/09 02:56:04;;;;;;;;;;;;;;;8.36;54.65;93945.25;4212874;28;20053;-52
2023/03/09 02:58:05;;;;;;;;;;;;;;;8.29;54.42;93951.31;4200720;28;19920;-53
2023/03/09 03:00:08;;;;;;;;;;;;;;;8.35;55.12;93927.16;4222460;28;19966;-54
2023/03/09 03:02:10;;;;;;;;;;;;;;;8.37;55.76;93940.88;4208565;28;20288;-51
2023/03/09 03:04:11;;;;;;;;;;;;;;;8.45;54.66;93942.69;4224385;28;19926;-52
2023/03/09 03:06:13;;;;;;;;;;;;;;;8.49;54.51;93934.34;4207480;28;19963;-50
2023/03/09 03:08:15;;;;;;;;;;;;;;;8.27;55.24;93937.59;4211605;28;19928;-53
2023/03/09 03:10:30;;;;;;;;;;;;;;;8.21;55.67;93942.47;4206311;28;19946;-51
2023/03/09 03:12:32;;;;;;;;;;;;;;;8.04;56.12;93938.25;4212730;28;19920;-55
2023/03/09 03:14:33;;;;;;;;;;;;;;;8.10;56.17;93953.25;4199264;28;19990;-51
2023/03/09 03:16:35;;;;;;;;;;;;;;;8.17;55.56;93961.22;4189730;28;19928;-51
2023/03/09 03:18:36;;;;;;;;;;;;;;;8.28;55.83;93950.50;4205766;28;19959;-52
2023/03/09 03:20:38;;;;;;;;;;;;;;;8.28;55.41;93947.88;4211570;28;19920;-54
2023/03/09 03:22:40;;;;;;;;;;;;;;;8.30;54.75;93960.75;4211539;28;20412;-53
2023/03/09 03:24:42;;;;;;;;;;;;;;;8.32;55.36;93954.38;4203045;28;19920;-53
2023/03/09 03:26:44;;;;;;;;;;;;;;;8.41;55.04;93952.66;4222606;28;19923;-57
2023/03/09 03:28:45;;;;;;;;;;;;;;;8.50;54.37;93959.47;4212662;28;20362;-51
2023/03/09 03:30:50;;;;;;;;;;;;;;;8.29;55.13;93954.72;4226198;28;19923;-55
2023/03/09 03:32:53;;;;;;;;;;;;;;;8.28;55.21;93957.50;4228718;28;20523;-54
2023/03/09 03:34:55;;;;;;;;;;;;;;;8.31;54.84;93970.22;4226404;28;19923;-55
2023/03/09 03:36:56;;;;;;;;;;;;;;;8.14;54.98;93953.75;4228037;28;19920;-53
2023/03/09 03:38:58;;;;;;;;;;;;;;;7.71;56.68;93955.66;4226079;28;19920;-54
2023/03/09 03:40:59;;;;;;;;;;;;;;;7.68;56.77;93950.72;4228570;28;19931;-53
2023/03/09 03:43:01;;;;;;;;;;;;;;;7.79;57.16;93961.69;4227597;28;20010;-50
2023/03/09 03:45:02;;;;;;;;;;;;;;;7.93;56.40;93962.03;4218062;28;20457;-53
2023/03/09 03:47:04;;;;;;;;;;;;;;;7.99;55.93;93970.03;4225602;28;19935;-55
2023/03/09 03:49:05;;;;;;;;;;;;;;;8.11;55.78;93960.09;4228246;28;20234;-50
2023/03/09 03:51:07;;;;;;;;;;;;;;;8.24;56.02;93958.78;4226979;28;20230;-50
2023/03/09 03:53:09;;;;;;;;;;;;;;;8.35;55.19;93971.53;4227790;28;19969;-51
2023/03/09 03:55:10;;;;;;;;;;;;;;;8.33;54.79;93968.28;4213883;28;20470;-51
2023/03/09 03:57:12;;;;;;;;;;;;;;;8.32;55.07;93956.19;4224602;28;20374;-51
2023/03/09 03:59:13;;;;;;;;;;;;;;;8.31;54.84;93951.97;4185987;28;19921;-51
2023/03/09 04:01:15;;;;;;;;;;;;;;;8.33;54.87;93948.19;4198135;28;19921;-53
2023/03/09 04:03:16;;;;;;;;;;;;;;;8.33;55.18;93942.19;4198911;28;19963;-54
2023/03/09 04:05:18;;;;;;;;;;;;;;;8.35;55.52;93954.06;4219068;28;19920;-53
2023/03/09 04:07:19;;;;;;;;;;;;;;;8.34;55.57;93956.84;4231827;28;19924;-50
2023/03/09 04:09:21;;;;;;;;;;;;;;;8.38;54.89;93958.16;4231864;28;19950;-54
2023/03/09 04:11:22;;;;;;;;;;;;;;;8.40;54.61;93957.03;4232504;28;19924;-53
2023/03/09 04:13:24;;;;;;;;;;;;;;;8.43;55.15;93961.09;4231137;28;19935;-54
2023/03/09 04:15:25;;;;;;;;;;;;;;;8.44;54.77;93947.09;4231914;28;20529;-52
2023/03/09 04:17:27;;;;;;;;;;;;;;;8.44;55.21;93949.69;4232200;28;19927;-54
2023/03/09 04:19:29;;;;;;;;;;;;;;;8.44;54.93;93944.47;4231851;28;19973;-51
2023/03/09 04:21:30;;;;;;;;;;;;;;;8.45;54.72;93956.53;4229804;28;19969;-53
2023/03/09 04:23:32;;;;;;;;;;;;;;;8.38;55.15;93958.16;4231554;28;19973;-55
2023/03/09 04:25:33;;;;;;;;;;;;;;;8.38;54.93;93943.28;4218139;28;19923;-54
2023/03/09 04:27:35;;;;;;;;;;;;;;;8.40;55.45;93935.31;4221929;28;19924;-52
2023/03/09 04:29:36;;;;;;;;;;;;;;;8.44;54.88;93941.88;4221417;28;19920;-48
2023/03/09 04:31:38;;;;;;;;;;;;;;;8.46;54.84;93949.53;4224431;28;19920;-53
2023/03/09 04:33:42;;;;;;;;;;;;;;;8.50;54.40;93932.56;4219944;28;19949;-53
2023/03/09 04:35:44;;;;;;;;;;;;;;;8.48;54.84;93927.50;4219793;28;19927;-52
2023/03/09 04:37:46;;;;;;;;;;;;;;;8.46;54.74;93929.47;4221771;28;19921;-51
2023/03/09 04:39:47;;;;;;;;;;;;;;;8.43;54.44;93932.38;4224723;28;19972;-52
2023/03/09 04:41:49;;;;;;;;;;;;;;;8.37;54.68;93926.03;4224798;28;20290;-50
2023/03/09 04:43:50;;;;;;;;;;;;;;;8.18;55.44;93932.38;4224128;28;20357;-52
2023/03/09 04:45:52;;;;;;;;;;;;;;;8.21;56.03;93926.00;4226232;28;20274;-53
2023/03/09 04:47:54;;;;;;;;;;;;;;;8.24;55.92;93917.03;4225679;28;19924;-56
2023/03/09 04:49:56;;;;;;;;;;;;;;;8.20;55.49;93911.34;4223914;28;19953;-50
2023/03/09 04:51:57;;;;;;;;;;;;;;;8.09;55.42;93927.34;4219317;28;19928;-55
2023/03/09 04:53:59;;;;;;;;;;;;;;;8.03;56.22;93925.38;4225597;28;19969;-55
2023/03/09 04:56:01;;;;;;;;;;;;;;;7.80;56.79;93918.97;4213481;28;19919;-52
2023/03/09 04:58:03;;;;;;;;;;;;;;;7.84;56.50;93929.09;4225050;28;20325;-49
2023/03/09 05:00:08;;;;;;;;;;;;;;;7.96;56.68;93930.44;4228060;28;20386;-56
2023/03/09 05:02:09;;;;;;;;;;;;;;;8.07;56.49;93927.50;4230308;28;20313;-55
2023/03/09 05:04:11;;;;;;;;;;;;;;;8.13;55.76;93895.53;4225999;28;19982;-53
2023/03/09 05:06:12;;;;;;;;;;;;;;;7.94;56.63;93919.34;4213034;28;20018;-53
2023/03/09 05:08:14;;;;;;;;;;;;;;;8.03;56.05;93925.38;4229686;28;20415;-54
2023/03/09 05:10:15;;;;;;;;;;;;;;;7.91;56.51;93917.84;4230073;28;19920;-55
2023/03/09 05:12:17;;;;;;;;;;;;;;;7.92;56.87;93929.13;4229672;28;19923;-55
2023/03/09 05:14:19;;;;;;;;;;;;;;;7.98;56.63;93926.69;4228368;28;19945;-51
2023/03/09 05:16:20;;;;;;;;;;;;;;;7.84;56.89;93932.53;4227144;28;20005;-55
2023/03/09 05:18:22;;;;;;;;;;;;;;;7.74;57.09;93935.28;4229892;28;19924;-56
2023/03/09 05:20:23;;;;;;;;;;;;;;;7.62;57.44;93915.72;4226381;28;20343;-54
2023/03/09 05:22:26;;;;;;;;;;;;;;;7.61;57.14;93916.66;4226614;28;20471;-54
2023/03/09 05:24:28;;;;;;;;;;;;;;;7.55;57.24;93917.31;4224225;28;19919;-53
2023/03/09 05:26:29;;;;;;;;;;;;;;;7.62;57.58;93917.50;4228685;28;19973;-56
2023/03/09 05:28:31;;;;;;;;;;;;;;;7.70;57.60;93915.72;4231498;28;20010;-58
2023/03/09 05:30:33;;;;;;;;;;;;;;;7.80;57.04;93921.59;4230843;28;19955;-55
2023/03/09 05:32:34;;;;;;;;;;;;;;;8.01;56.59;93928.13;4215217;28;19974;-58
2023/03/09 05:34:36;;;;;;;;;;;;;;;8.23;56.93;93923.25;4215175;28;20369;-51
2023/03/09 05:36:37;;;;;;;;;;;;;;;8.47;55.81;93936.31;4213407;28;19920;-55
2023/03/09 05:38:39;;;;;;;;;;;;;;;8.49;55.11;93936.94;4215737;28;19942;-55
2023/03/09 05:40:40;;;;;;;;;;;;;;;8.27;56.12;93937.59;4193335;28;20007;-51
2023/03/09 05:42:42;;;;;;;;;;;;;;;8.36;55.79;93950.47;4205069;28;19931;-57
2023/03/09 05:44:43;;;;;;;;;;;;;;;8.51;55.04;93947.25;4207026;28;19924;-54
2023/03/09 05:46:45;;;;;;;;;;;;;;;8.36;54.91;93947.88;4198675;28;19925;-56
2023/03/09 05:48:47;;;;;;;;;;;;;;;8.18;56.31;93935.00;4201662;28;19926;-54
2023/03/09 05:50:48;;;;;;;;;;;;;;;8.35;56.17;93941.03;4207117;28;19986;-53
2023/03/09 05:52:50;;;;;;;;;;;;;;;8.49;55.25;93942.19;4198758;28;20393;-58
2023/03/09 05:54:51;;;;;;;;;;;;;;;8.45;55.06;93940.88;4211569;28;19920;-56
2023/03/09 05:56:54;;;;;;;;;;;;;;;8.52;54.93;93948.88;4198715;28;19931;-58
2023/03/09 05:58:56;;;;;;;;;;;;;;;8.64;55.23;93957.19;4197640;28;19920;-53
2023/03/09 06:00:58;;;;;;;;;;;;;;;8.72;54.81;93965.00;4206673;28;19926;-55
2023/03/09 06:02:59;;;;;;;;;;;;;;;8.84;54.57;93952.41;4201732;28;19924;-56
2023/03/09 06:05:01;;;;;;;;;;;;;;;8.84;54.30;93973.31;4206664;28;20003;-53
2023/03/09 06:07:03;;;;;;;;;;;;;;;8.84;54.34;93976.75;4214844;28;20297;-54
2023/03/09 06:09:04;;;;;;;;;;;;;;;8.87;54.05;93958.13;4230691;28;19919;-54
2023/03/09 06:11:06;;;;;;;;;;;;;;;8.67;54.64;93977.72;4221998;28;20236;-52
2023/03/09 06:13:07;;;;;;;;;;;;;;;8.69;55.01;93971.38;4202022;28;19969;-55
2023/03/09 06:15:09;;;;;;;;;;;;;;;8.86;54.48;93974.75;4200322;28;20002;-53
2023/03/09 06:17:11;;;;;;;;;;;;;;;9.04;54.10;93968.53;4231255;28;20524;-55
2023/03/09 06:19:12;;;;;;;;;;;;;;;9.08;52.73;93965.41;4230805;28;19920;-56
2023/03/09 06:21:14;;;;;;;;;;;;;;;9.13;52.79;93959.69;4228784;28;19920;-54
2023/03/09 06:23:15;;;;;;;;;;;;;;;9.23;53.08;93957.69;4229239;28;19924;-58
2023/03/09 06:25:17;;;;;;;;;;;;;;;9.33;52.61;93960.91;4204151;28;20007;-55
2023/03/09 06:27:18;;;;;;;;;;;;;;;9.44;52.60;93972.78;4226135;28;20281;-54
2023/03/09 06:29:20;;;;;;;;;;;;;;;9.45;52.67;93957.94;4230615;28;19919;-54
2023/03/09 06:31:21;;;;;;;;;;;;;;;9.49;52.82;93960.03;4229773;28;20503;-55
2023/03/09 06:33:23;;;;;;;;;;;;;;;9.56;53.33;93963.59;4212240;28;19924;-56
2023/03/09 06:35:25;;;;;;;;;;;;;;;9.63;52.65;93971.56;4208203;28;19930;-58
2023/03/09 06:37:26;;;;;;;;;;;;;;;9.66;51.95;93958.16;4202615;28;20447;-57
2023/03/09 06:39:28;;;;;;;;;;;;;;;9.67;52.08;93951.94;4230338;28;19926;-57
2023/03/09 06:41:31;;;;;;;;;;;;;;;9.67;52.46;93966.81;4230728;28;19946;-57
2023/03/09 06:43:33;;;;;;;;;;;;;;;9.75;51.97;93966.78;4216797;28;19970;-54
2023/03/09 06:45:35;;;;;;;;;;;;;;;9.66;51.88;93957.34;4198573;28;19929;-55
2023/03/09 06:47:36;;;;;;;;;;;;;;;9.60;52.13;93961.47;4198320;28;19920;-54
2023/03/09 06:49:38;;;;;;;;;;;;;;;9.66;52.87;93950.31;4196985;28;20406;-56
2023/03/09 06:51:39;;;;;;;;;;;;;;;9.77;52.01;93939.47;4195820;28;19977;-55
2023/03/09 06:53:41;;;;;;;;;;;;;;;9.76;52.22;93943.06;4212980;28;19920;-55
2023/03/09 06:55:43;;;;;;;;;;;;;;;9.52;52.12;93941.38;4218029;28;20010;-56
2023/03/09 06:57:44;;;;;;;;;;;;;;;9.54;52.36;93943.84;4227882;28;19924;-55
2023/03/09 06:59:46;;;;;;;;;;;;;;;9.68;52.52;93937.91;4227213;28;20375;-54
2023/03/09 07:01:47;;;;;;;;;;;;;;;9.90;52.75;93946.75;4215276;28;19927;-55
2023/03/09 07:03:49;;;;;;;;;;;;;;;10.13;51.69;93938.06;4228427;28;19924;-54
2023/03/09 07:05:51;;;;;;;;;;;;;;;10.07;51.04;93933.53;4207565;28;19974;-54
2023/03/09 07:07:52;;;;;;;;;;;;;;;9.94;50.58;93939.38;4196424;28;19920;-54
2023/03/09 07:09:54;;;;;;;;;;;;;;;9.77;51.17;93936.03;4207953;28;19985;-55
2023/03/09 07:11:55;;;;;;;;;;;;;;;9.75;51.89;93935.41;4193481;28;20006;-54
2023/03/09 07:13:57;;;;;;;;;;;;;;;9.89;51.55;93941.69;4196922;28;20355;-56
2023/03/09 07:16:01;;;;;;;;;;;;;;;9.73;51.66;93924.28;4213201;28;20429;-59
2023/03/09 07:18:05;;;;;;;;;;;;;;;9.81;51.97;93932.91;4229740;28;19924;-54
2023/03/09 07:20:08;;;;;;;;;;;;;;;9.56;51.89;93939.25;4227744;28;20551;-54
2023/03/09 07:22:10;;;;;;;;;;;;;;;9.65;52.24;93951.28;4229371;28;19920;-54
2023/03/09 07:24:12;;;;;;;;;;;;;;;9.77;51.77;93929.00;4230001;28;19972;-54
2023/03/09 07:26:13;;;;;;;;;;;;;;;9.72;51.76;93939.19;4222899;28;20362;-54
2023/03/09 07:28:15;;;;;;;;;;;;;;;9.79;51.42;93942.72;4216575;28;19927;-56
2023/03/09 07:30:17;;;;;;;;;;;;;;;9.98;51.17;93949.31;4216324;28;20302;-55
2023/03/09 07:32:18;;;;;;;;;;;;;;;10.05;51.21;93952.84;4220586;28;19919;-54
2023/03/09 07:34:20;;;;;;;;;;;;;;;10.25;50.86;93958.44;4220900;28;20348;-58
2023/03/09 07:36:22;;;;;;;;;;;;;;;10.48;50.41;93952.41;4222319;28;19926;-54
2023/03/09 07:38:23;;;;;;;;;;;;;;;10.62;49.63;93956.84;4200641;28;20335;-57
2023/03/09 07:40:25;;;;;;;;;;;;;;;10.65;49.61;93951.28;4220834;28;19919;-59
2023/03/09 07:42:26;;;;;;;;;;;;;;;10.82;49.54;93956.38;4211753;28;19920;-59
2023/03/09 07:44:37;;;;;;;;;;;;;;;11.00;49.11;93950.78;4224784;28;19955;-55
2023/03/09 07:46:39;;;;;;;;;;;;;;;11.15;48.63;93950.78;4227087;28;19942;-55
2023/03/09 07:48:41;;;;;;;;;;;;;;;11.32;48.32;93938.31;4221750;28;20284;-53
2023/03/09 07:50:43;;;;;;;;;;;;;;;11.31;48.11;93947.16;4212537;28;19920;-55
2023/03/09 07:52:44;;;;;;;;;;;;;;;11.28;47.98;93943.09;4224699;28;19920;-57
2023/03/09 07:54:49;;;;;;;;;;;;;;;11.10;48.30;93958.38;4214253;28;19963;-58
2023/03/09 07:56:51;;;;;;;;;;;;;;;11.05;48.76;93948.41;4225896;28;19958;-51
2023/03/09 07:58:53;;;;;;;;;;;;;;;10.80;48.83;93940.03;4226691;28;19928;-57
2023/03/09 08:00:54;;;;;;;;;;;;;;;10.76;49.02;93949.22;4222971;28;19986;-58
2023/03/09 08:02:56;;;;;;;;;;;;;;;10.82;49.16;93949.31;4216916;28;20345;-56
2023/03/09 08:04:58;;;;;;;;;;;;;;;11.01;48.84;93948.00;4212165;28;19923;-53
2023/03/09 08:06:59;;;;;;;;;;;;;;;11.23;48.63;93937.59;4198236;28;19946;-58
2023/03/09 08:09:01;;;;;;;;;;;;;;;11.38;48.03;93942.81;4200043;28;19978;-55
2023/03/09 08:11:03;;;;;;;;;;;;;;;11.33;48.04;93947.78;4204976;28;20267;-55
2023/03/09 08:13:04;;;;;;;;;;;;;;;11.04;48.92;93938.94;4196267;28;19920;-58
2023/03/09 08:15:06;;;;;;;;;;;;;;;10.70;49.71;93942.06;4209670;28;19924;-58
2023/03/09 08:17:07;;;;;;;;;;;;;;;10.56;50.41;93954.97;4197139;28;20432;-58
2023/03/09 08:19:09;;;;;;;;;;;;;;;10.51;50.12;93938.94;4196751;28;19920;-55
2023/03/09 08:21:12;;;;;;;;;;;;;;;10.67;50.17;93956.34;4206573;28;20377;-58
2023/03/09 08:23:14;;;;;;;;;;;;;;;10.94;49.96;93941.81;4212563;28;19920;-53
2023/03/09 08:25:15;;;;;;;;;;;;;;;11.13;49.44;93947.53;4213896;28;19920;-53
2023/03/09 08:27:16;;;;;;;;;;;;;;;11.20;49.17;93946.59;4229324;28;20015;-53
2023/03/09 08:29:18;;;;;;;;;;;;;;;11.31;48.80;93936.66;4228370;28;19920;-53
2023/03/09 08:31:20;;;;;;;;;;;;;;;11.40;48.62;93933.78;4228585;28;20022;-54
2023/03/09 08:33:21;;;;;;;;;;;;;;;11.59;48.59;93934.19;4228950;28;19958;-51
2023/03/09 08:35:25;;;;;;;;;;;;;;;11.82;48.32;93934.88;4214526;28;19920;-56
2023/03/09 08:37:26;;;;;;;;;;;;;;;11.79;48.01;93929.19;4179335;28;20417;-52
2023/03/09 08:39:28;;;;;;;;;;;;;;;11.99;48.17;93939.94;4196096;28;20019;-57
2023/03/09 08:41:29;;;;;;;;;;;;;;;12.28;48.28;93938.97;4196226;28;20293;-58
2023/03/09 08:43:31;;;;;;;;;;;;;;;12.36;47.06;93930.16;4196195;28;20028;-57
2023/03/09 08:45:32;;;;;;;;;;;;;;;12.46;46.67;93928.03;4209502;28;19969;-57
2023/03/09 08:47:34;;;;;;;;;;;;;;;12.55;46.45;93928.72;4215596;28;19942;-55
2023/03/09 08:49:39;;;;;;;;;;;;;;;12.26;46.83;93928.69;4204207;28;19920;-52
2023/03/09 08:51:41;;;;;;;;;;;;;;;12.26;47.14;93920.81;4199438;28;19936;-55
2023/03/09 08:53:42;;;;;;;;;;;;;;;12.34;47.21;93921.66;4215795;28;19958;-54
2023/03/09 08:55:44;;;;;;;;;;;;;;;12.47;46.71;93916.53;4220797;28;19919;-53
2023/03/09 08:57:46;;;;;;;;;;;;;;;12.49;47.03;93922.41;4222193;28;19971;-52
2023/03/09 08:59:48;;;;;;;;;;;;;;;12.59;46.82;93920.25;4201594;28;19920;-55
2023/03/09 09:01:49;;;;;;;;;;;;;;;12.65;46.75;93919.50;4198632;28;20520;-55
2023/03/09 09:03:51;;;;;;;;;;;;;;;12.68;46.98;93908.59;4199069;28;19928;-51
2023/03/09 09:05:53;;;;;;;;;;;;;;;12.72;46.68;93916.94;4213288;28;19927;-53
2023/03/09 09:07:55;;;;;;;;;;;;;;;12.82;46.70;93906.06;4212091;28;20294;-54
2023/03/09 09:09:58;;;;;;;;;;;;;;;12.95;46.28;93897.44;4216151;28;19927;-57
2023/03/09 09:11:59;;;;;;;;;;;;;;;13.05;45.98;93904.00;4211843;28;19923;-56
2023/03/09 09:14:01;;;;;;;;;;;;;;;13.10;46.31;93887.66;4191075;28;20063;-57
2023/03/09 09:16:21;;;;;;;;;;;;;;;12.98;46.49;93890.00;4212535;28;19920;-56
2023/03/09 09:18:23;;;;;;;;;;;;;;;12.89;46.31;93884.09;4215314;28;19920;-58
2023/03/09 09:20:33;;;;;;;;;;;;;;;12.89;46.47;93878.03;4214060;28;20230;-53
2023/03/09 09:22:34;;;;;;;;;;;;;;;12.96;46.16;93885.94;4213704;28;19927;-56
2023/03/09 09:24:36;;;;;;;;;;;;;;;13.03;46.10;93876.28;4189211;28;19939;-51
2023/03/09 09:26:37;;;;;;;;;;;;;;;13.22;45.94;93880.00;4198242;28;19921;-56
2023/03/09 09:28:39;;;;;;;;;;;;;;;13.37;46.18;93882.53;4206496;28;19920;-52
2023/03/09 09:30:43;;;;;;;;;;;;;;;13.50;45.48;93870.25;4201233;28;19927;-55
2023/03/09 09:32:45;;;;;;;;;;;;;;;13.48;44.97;93856.47;4197949;28;19920;-55
2023/03/09 09:34:46;;;;;;;;;;;;;;;13.41;45.29;93855.63;4196986;28;20385;-54
2023/03/09 09:36:48;;;;;;;;;;;;;;;13.49;45.30;93862.56;4198485;28;19924;-55
2023/03/09 09:38:49;;;;;;;;;;;;;;;13.61;45.31;93857.53;4199192;28;19920;-52
2023/03/09 09:40:51;;;;;;;;;;;;;;;13.83;44.88;93852.91;4196502;28;20480;-56
2023/03/09 09:42:53;;;;;;;;;;;;;;;14.11;44.19;93855.38;4207273;28;20172;-55
2023/03/09 09:44:54;;;;;;;;;;;;;;;14.27;43.72;93854.19;4200258;28;20011;-55
2023/03/09 09:46:56;;;;;;;;;;;;;;;14.39;43.57;93851.75;4212825;28;20401;-58
2023/03/09 09:48:58;;;;;;;;;;;;;;;14.55;43.23;93861.91;4214127;28;19924;-58
2023/03/09 09:51:08;;;;;;;;;;;;;;;14.79;43.21;93859.66;4186733;28;20287;-56
2023/03/09 09:53:28;;;;;;;;;;;;;;;14.81;42.45;93840.00;4179785;28;19974;-53
2023/03/09 09:55:32;;;;;;;;;;;;;;;14.60;42.34;93840.22;4209613;28;19956;-52
2023/03/09 09:57:44;;;;;;;;;;;;;;;14.66;42.65;93842.84;4178302;28;19921;-54
2023/03/09 10:00:05;;;;;;;;;;;;;;;14.55;42.74;93838.19;4178928;28;19921;-54
2023/03/09 10:02:07;;;;;;;;;;;;;;;14.71;42.42;93834.31;4197170;28;19966;-56
2023/03/09 10:04:11;;;;;;;;;;;;;;;14.98;42.63;93836.91;4205081;28;19920;-56
2023/03/09 10:06:22;;;;;;;;;;;;;;;15.25;42.17;93821.78;4209226;28;19999;-56
2023/03/09 10:08:26;;;;;;;;;;;;;;;15.46;41.51;93824.13;4222272;28;19919;-54
2023/03/09 10:10:28;;;;;;;;;;;;;;;15.70;41.25;93822.63;4195377;28;19924;-53
2023/03/09 10:12:29;;;;;;;;;;;;;;;15.84;40.95;93815.44;4230762;28;19920;-55
2023/03/09 10:14:31;;;;;;;;;;;;;;;15.92;40.81;93804.63;4230835;28;19919;-57
2023/03/09 10:17:00;;;;;;;;;;;;;;;16.01;40.51;93805.19;4229557;28;19959;-54
2023/03/09 10:19:04;;;;;;;;;;;;;;;15.85;40.45;93803.03;4180526;28;19920;-56
2023/03/09 10:21:06;;;;;;;;;;;;;;;15.69;40.78;93805.13;4218408;28;20403;-57
2023/03/09 10:23:13;;;;;;;;;;;;;;;15.99;40.90;93798.50;4182240;28;19933;-55
2023/03/09 10:25:16;;;;;;;;;;;;;;;16.02;40.50;93790.94;4206839;28;19920;-56
2023/03/09 10:27:18;;;;;;;;;;;;;;;16.05;40.66;93789.72;4200656;28;19924;-57
2023/03/09 10:29:28;;;;;;;;;;;;;;;16.11;40.88;93779.09;4210983;28;19920;-60
2023/03/09 10:31:40;;;;;;;;;;;;;;;16.11;41.02;93773.81;4196625;28;19921;-55
2023/03/09 10:34:17;;;;;;;;;;;;;;;16.21;40.79;93780.44;4208939;28;19970;-58
2023/03/09 10:36:32;;;;;;;;;;;;;;;16.25;40.65;93761.28;4143639;28;20356;-57
2023/03/09 10:38:34;;;;;;;;;;;;;;;16.38;40.42;93739.22;4178651;28;19967;-56
2023/03/09 10:40:44;;;;;;;;;;;;;;;16.41;40.31;93751.97;4178743;28;20165;-58
2023/03/09 10:42:46;;;;;;;;;;;;;;;16.50;40.57;93749.91;4196888;28;19966;-54